Impacts METAR Board INFO
IDs:

KPHL - Philadelphia Intl, PA, US

Updated at: 1551 UTC 19 Nov 2017
Potential Impact None Slight Moderate High
Time19/03Z 19/04Z 19/05Z 19/06Z 19/07Z 19/08Z 19/09Z 19/10Z 19/11Z 19/12Z 19/13Z 19/14Z 19/15Z
VIS10 10 10 10 10 6 10 7 10 10 10 10 10
CIG160 130 120 80 100 60 15 15 60 90 90 -- 45
CoverOVCOVCOVCOVCOVCOVCOVCOVCOVCBKNBKNSCTBKN
FltCatVFRVFRVFRVFRVFRVFRMVFRMVFRVFRVFRVFRVFRVFR
WX-------RA-RARA BR-RA-RA-RA--------
WDir190200210210210210200210230280290280300
WSpd13 17 18 17 20 14 16 17 18 27 23 21 27
WGst-- 24 25 27 28 24 21 25 29 36 35 36 37
Raw hourly METARs
KPHL 190254Z 19013KT 10SM FEW100 FEW130 BKN160 OVC200 14/08 A2947 RMK AO2 SLP980 60000 T01390083 58037
KPHL 190354Z 20017G24KT 10SM FEW050 SCT100 BKN130 OVC200 16/09 A2943 RMK AO2 SLP964 T01560094
KPHL 190454Z 21018G25KT 10SM FEW080 OVC120 16/10 A2940 RMK AO2 PK WND 20029/0420 RAB08E43 SLP955 P0000 T01610100 401610011
KPHL 190554Z 21017G27KT 10SM -RA BKN080 OVC110 16/11 A2937 RMK AO2 PK WND 21030/0539 RAB49 SLP945 P0000 60000 T01610106 10167 20106 56035
KPHL 190654Z 21020G28KT 10SM -RA SCT065 OVC100 16/12 A2937 RMK AO2 PK WND 20028/0653 SLP944 P0001 T01560117
KPHL 190754Z 21014G24KT 6SM RA BR FEW013 SCT039 OVC060 15/13 A2934 RMK AO2 PK WND 21026/0722 SLP936 P0012 T01500128
KPHL 190905Z 20016G21KT 10SM -RA BKN015 BKN031 OVC070 15/13 A2929 RMK AO2 P0000 T01500128
KPHL 190954Z 21017G25KT 7SM -RA BKN015 BKN029 OVC065 15/13 A2929 RMK AO2 PK WND 19027/0932 SLP917 P0007 T01500133
KPHL 191058Z 23018G29KT 10SM -RA FEW012 OVC060 14/13 A2929 RMK AO2 P0000 T01440128
KPHL 191154Z 28027G36KT 10SM FEW029 SCT035 BKN090 12/05 A2937 RMK AO2 PK WND 27037/1139 RAE23 PRESRR SLP946 WSHFT 1135 FROPA P0000 60033 70036 T01220050 10167 20122 53029
KPHL 191254Z 29023G35KT 10SM SCT040 BKN090 10/01 A2945 RMK AO2 PK WND 27036/1243 SLP973 T01000011
KPHL 191354Z 28021G36KT 10SM SCT040 SCT090 SCT160 11/01 A2951 RMK AO2 PK WND 28038/1318 SLP991 T01060011
KPHL 191454Z 30027G37KT 10SM BKN045 BKN090 11/00 A2955 RMK AO2 PK WND 29037/1449 SLP005 T01060000 51060